Time;durP1;ratioP1;P1;durP2;ratioP2;P2;SDS_P1;SDS_P2;PMS_P1;PMS_P2;Temp;Humidity;BMP_temperature;BMP_pressure;BME280_temperature;BME280_humidity;BME280_pressure;Samples;Min_cycle;Max_cycle;Signal;HPM_P1;HPM_P2
2021/09/30 00:01:36;;;;;;;;;;;23.50;60.20;;;;;;5020380;28;19939;-65
2021/09/30 00:04:03;;;;;;;;;;;23.50;60.20;;;;;;5027647;28;19928;-68
2021/09/30 00:06:30;;;;;;;;;;;23.50;60.20;;;;;;5028692;28;19921;-68
2021/09/30 00:08:57;;;;;;;;;;;23.50;60.20;;;;;;5028554;28;19921;-68
2021/09/30 00:11:30;;;;;;;;;;;23.50;60.10;;;;;;5019707;28;19923;-66
2021/09/30 00:14:09;;;;;;;;;;;23.50;60.10;;;;;;5042377;28;20369;-67
2021/09/30 00:42:24;;;;;;;;;;;23.50;60.10;;;;;;5022970;28;20390;-69
2021/09/30 00:47:46;;;;;;;;;;;23.50;60.10;;;;;;5031671;28;19960;-68
2021/09/30 00:50:45;;;;;;;;;;;23.50;60.10;;;;;;5027566;28;20015;-68
2021/09/30 01:18:05;;;;;;;;;;;23.50;60.10;;;;;;5030421;28;19921;-68
2021/09/30 01:25:50;;;;;;;;;;;23.40;60.10;;;;;;5030192;28;20281;-68
2021/09/30 01:34:04;;;;;;;;;;;23.40;60.10;;;;;;5057875;28;19921;-68
2021/09/30 01:57:44;;;;;;;;;;;23.40;60.00;;;;;;5052776;28;19921;-68
2021/09/30 02:21:16;;;;;;;;;;;23.40;60.00;;;;;;5022827;28;19964;-68
2021/09/30 02:26:40;;;;;;;;;;;23.30;60.00;;;;;;5029707;28;19921;-68
2021/09/30 02:29:21;;;;;;;;;;;23.40;60.00;;;;;;5028695;28;19927;-65
2021/09/30 02:59:51;;;;;;;;;;;23.30;60.00;;;;;;5027537;28;20551;-68
2021/09/30 03:02:18;;;;;;;;;;;23.30;60.00;;;;;;5020657;28;19921;-65
2021/09/30 03:04:46;;;;;;;;;;;23.30;60.00;;;;;;5028600;28;19951;-68
2021/09/30 03:07:16;;;;;;;;;;;23.30;60.10;;;;;;5028696;28;19968;-69
2021/09/30 03:12:42;;;;;;;;;;;23.30;60.00;;;;;;5022787;28;20420;-69
2021/09/30 03:15:16;;;;;;;;;;;23.30;60.00;;;;;;5029249;28;20389;-68
2021/09/30 03:17:48;;;;;;;;;;;23.30;60.00;;;;;;5029154;28;19925;-68
2021/09/30 03:20:31;;;;;;;;;;;23.30;60.00;;;;;;5023391;28;20289;-68
2021/09/30 03:22:59;;;;;;;;;;;23.30;60.00;;;;;;5021562;28;19984;-68
2021/09/30 03:25:26;;;;;;;;;;;23.30;60.10;;;;;;5029316;28;20012;-69
2021/09/30 03:27:54;;;;;;;;;;;23.30;60.00;;;;;;5027774;28;20008;-69
2021/09/30 03:30:23;;;;;;;;;;;23.30;60.00;;;;;;5023526;28;20015;-69
2021/09/30 03:32:51;;;;;;;;;;;23.30;60.00;;;;;;5024135;28;20524;-68
2021/09/30 03:35:18;;;;;;;;;;;23.30;60.00;;;;;;5028700;28;20473;-69
2021/09/30 03:37:45;;;;;;;;;;;23.30;60.00;;;;;;5028452;28;20530;-69
2021/09/30 03:40:13;;;;;;;;;;;23.30;60.00;;;;;;5023974;28;19916;-69
2021/09/30 03:42:40;;;;;;;;;;;23.30;60.00;;;;;;5052649;28;19921;-68
2021/09/30 03:45:07;;;;;;;;;;;23.30;60.00;;;;;;5027483;28;20385;-68
2021/09/30 03:47:35;;;;;;;;;;;23.30;60.00;;;;;;5027786;28;19968;-69
2021/09/30 03:50:03;;;;;;;;;;;23.30;60.00;;;;;;5025378;28;19925;-69
2021/09/30 03:52:45;;;;;;;;;;;23.30;60.00;;;;;;5020034;28;20013;-69
2021/09/30 04:00:55;;;;;;;;;;;23.20;60.00;;;;;;5023841;28;19963;-68
2021/09/30 04:03:22;;;;;;;;;;;23.30;60.00;;;;;;5027585;28;19921;-69
2021/09/30 04:05:49;;;;;;;;;;;23.30;60.00;;;;;;5028708;28;19967;-69
2021/09/30 04:08:16;;;;;;;;;;;23.30;60.00;;;;;;5026985;28;20015;-69
2021/09/30 04:10:42;;;;;;;;;;;23.30;60.00;;;;;;5023021;28;19921;-68
2021/09/30 04:13:09;;;;;;;;;;;23.30;60.00;;;;;;5025523;28;19932;-69
2021/09/30 04:15:36;;;;;;;;;;;23.30;60.00;;;;;;5030140;28;19928;-69
2021/09/30 04:18:03;;;;;;;;;;;23.30;60.00;;;;;;5032201;28;19975;-69
2021/09/30 04:20:30;;;;;;;;;;;23.30;60.00;;;;;;5025718;28;19971;-66
2021/09/30 04:23:00;;;;;;;;;;;23.30;60.00;;;;;;5006691;28;19971;-69
2021/09/30 04:25:26;;;;;;;;;;;23.20;60.00;;;;;;5012174;28;20024;-69
2021/09/30 04:27:53;;;;;;;;;;;23.20;60.00;;;;;;5012148;28;20382;-69
2021/09/30 04:33:17;;;;;;;;;;;23.20;60.00;;;;;;5026024;28;19929;-68
2021/09/30 04:35:44;;;;;;;;;;;23.20;60.00;;;;;;5029820;28;19920;-69
2021/09/30 04:38:11;;;;;;;;;;;23.20;60.00;;;;;;5031526;28;20015;-70
2021/09/30 04:40:38;;;;;;;;;;;23.20;60.00;;;;;;5025565;28;20047;-68
2021/09/30 04:43:05;;;;;;;;;;;23.20;60.00;;;;;;5022338;28;19925;-69
2021/09/30 04:45:32;;;;;;;;;;;23.20;60.00;;;;;;5052047;28;19969;-69
2021/09/30 04:47:59;;;;;;;;;;;23.20;60.00;;;;;;5053419;28;19920;-69
2021/09/30 04:53:13;;;;;;;;;;;23.20;60.00;;;;;;5020738;28;19925;-68
2021/09/30 04:55:40;;;;;;;;;;;23.30;60.00;;;;;;5031146;28;19925;-69
2021/09/30 04:58:07;;;;;;;;;;;23.30;60.00;;;;;;5025986;28;20024;-69
2021/09/30 05:00:34;;;;;;;;;;;23.30;60.00;;;;;;5023550;28;20293;-69
2021/09/30 05:03:01;;;;;;;;;;;23.20;59.90;;;;;;5046785;28;19975;-69
2021/09/30 05:05:28;;;;;;;;;;;23.20;59.90;;;;;;5030366;28;20352;-69
2021/09/30 05:07:55;;;;;;;;;;;23.20;59.90;;;;;;5029418;28;19964;-69
2021/09/30 05:10:30;;;;;;;;;;;23.30;60.00;;;;;;5026198;28;20004;-65
2021/09/30 05:13:00;;;;;;;;;;;23.30;59.90;;;;;;5026494;28;20389;-69
2021/09/30 05:15:27;;;;;;;;;;;23.30;59.70;;;;;;5030280;28;19917;-69
2021/09/30 05:17:54;;;;;;;;;;;23.30;59.70;;;;;;5030137;28;19928;-68
2021/09/30 05:23:24;;;;;;;;;;;23.30;59.60;;;;;;5017801;28;19984;-70
2021/09/30 05:25:51;;;;;;;;;;;23.30;59.70;;;;;;5029721;28;20011;-69
2021/09/30 05:28:18;;;;;;;;;;;23.20;59.80;;;;;;5026382;28;19921;-67
2021/09/30 05:31:03;;;;;;;;;;;23.30;59.90;;;;;;5016028;28;19921;-69
2021/09/30 05:33:33;;;;;;;;;;;23.30;60.00;;;;;;5014046;28;20008;-71
2021/09/30 05:35:59;;;;;;;;;;;23.30;60.00;;;;;;5018307;28;19929;-70
2021/09/30 05:38:26;;;;;;;;;;;23.30;60.00;;;;;;5013582;28;21798;-70
2021/09/30 05:44:26;;;;;;;;;;;23.30;59.90;;;;;;5014942;28;19959;-67
2021/09/30 05:46:54;;;;;;;;;;;23.30;59.90;;;;;;5050687;28;20388;-65
2021/09/30 05:49:22;;;;;;;;;;;23.40;59.90;;;;;;5021180;28;19932;-68
2021/09/30 05:51:49;;;;;;;;;;;23.40;59.70;;;;;;5018984;28;20481;-67
2021/09/30 05:54:29;;;;;;;;;;;23.40;59.50;;;;;;5009698;28;19929;-68
2021/09/30 05:56:56;;;;;;;;;;;23.40;59.20;;;;;;5009214;28;20592;-66
2021/09/30 05:59:23;;;;;;;;;;;23.40;59.00;;;;;;5015343;28;19929;-64
2021/09/30 06:11:12;;;;;;;;;;;23.40;58.30;;;;;;5015023;28;19917;-63
2021/09/30 06:14:02;;;;;;;;;;;23.40;58.10;;;;;;5034439;28;19920;-62
2021/09/30 06:16:32;;;;;;;;;;;23.40;58.00;;;;;;5036824;28;19964;-63
2021/09/30 06:19:01;;;;;;;;;;;23.50;57.90;;;;;;5038404;28;19921;-64
2021/09/30 06:21:28;;;;;;;;;;;23.50;57.80;;;;;;5038570;28;19921;-64
2021/09/30 06:23:55;;;;;;;;;;;23.50;57.70;;;;;;5038223;28;19927;-71
2021/09/30 06:26:22;;;;;;;;;;;23.50;58.10;;;;;;5037793;28;20004;-70
2021/09/30 06:28:49;;;;;;;;;;;23.50;55.40;;;;;;5039504;28;19977;-71
2021/09/30 06:31:22;;;;;;;;;;;23.40;53.30;;;;;;5017768;28;19929;-71
2021/09/30 06:33:50;;;;;;;;;;;23.30;52.70;;;;;;5012373;28;20282;-70
2021/09/30 06:36:17;;;;;;;;;;;23.20;52.50;;;;;;5021554;28;19983;-73
2021/09/30 06:38:43;;;;;;;;;;;23.10;52.20;;;;;;5024446;28;20553;-68
2021/09/30 06:41:27;;;;;;;;;;;23.00;52.30;;;;;;5016290;28;19961;-64
2021/09/30 06:44:15;;;;;;;;;;;22.90;52.30;;;;;;5021845;28;19935;-63
2021/09/30 06:46:43;;;;;;;;;;;22.80;53.50;;;;;;5026157;28;20159;-63
2021/09/30 06:49:10;;;;;;;;;;;22.80;54.40;;;;;;5017837;28;20560;-66
2021/09/30 06:52:13;;;;;;;;;;;22.80;54.80;;;;;;5016120;28;20016;-67
2021/09/30 06:54:49;;;;;;;;;;;22.80;55.30;;;;;;5032547;28;19943;-65
2021/09/30 06:57:28;;;;;;;;;;;22.90;55.90;;;;;;5038306;28;19993;-67
2021/09/30 06:59:57;;;;;;;;;;;22.90;56.00;;;;;;5038128;28;19952;-66
2021/09/30 07:02:24;;;;;;;;;;;23.00;56.20;;;;;;5037486;28;19921;-64
2021/09/30 07:04:51;;;;;;;;;;;23.00;56.30;;;;;;5069421;28;19976;-65
2021/09/30 07:07:18;;;;;;;;;;;23.10;56.60;;;;;;5038887;28;19921;-65
2021/09/30 07:09:45;;;;;;;;;;;23.20;56.90;;;;;;5039043;28;20024;-68
2021/09/30 07:12:13;;;;;;;;;;;23.20;57.00;;;;;;5038837;28;19921;-72
2021/09/30 07:14:40;;;;;;;;;;;23.30;57.10;;;;;;5037959;28;20361;-71
2021/09/30 07:17:07;;;;;;;;;;;23.30;54.70;;;;;;5038912;28;19920;-73
2021/09/30 07:19:36;;;;;;;;;;;23.30;52.90;;;;;;5038582;28;20020;-72
2021/09/30 07:22:04;;;;;;;;;;;23.20;52.60;;;;;;5038502;28;19972;-75
2021/09/30 07:24:31;;;;;;;;;;;23.10;52.30;;;;;;5039427;28;20007;-64
2021/09/30 07:26:58;;;;;;;;;;;23.00;52.30;;;;;;5038135;28;20016;-67
2021/09/30 07:29:25;;;;;;;;;;;23.00;53.10;;;;;;5038166;28;19960;-67
2021/09/30 07:31:52;;;;;;;;;;;23.00;53.90;;;;;;5038228;28;19971;-66
2021/09/30 07:34:19;;;;;;;;;;;23.00;54.50;;;;;;5038768;28;19929;-66
2021/09/30 07:36:46;;;;;;;;;;;23.10;54.80;;;;;;5037786;28;19921;-67
2021/09/30 07:39:16;;;;;;;;;;;23.20;55.00;;;;;;5039472;28;20031;-70
2021/09/30 07:41:43;;;;;;;;;;;23.20;55.20;;;;;;5038194;28;19921;-66
2021/09/30 07:44:10;;;;;;;;;;;23.30;55.30;;;;;;5037962;28;19953;-68
2021/09/30 07:46:38;;;;;;;;;;;23.30;55.50;;;;;;5038349;28;19975;-68
2021/09/30 07:49:06;;;;;;;;;;;23.40;55.50;;;;;;5037665;28;20374;-67
2021/09/30 07:51:33;;;;;;;;;;;23.40;55.50;;;;;;5037870;28;19921;-65
2021/09/30 07:54:01;;;;;;;;;;;23.50;55.60;;;;;;5037146;28;19921;-67
2021/09/30 07:56:28;;;;;;;;;;;23.50;55.50;;;;;;5037147;28;20404;-69
2021/09/30 07:58:56;;;;;;;;;;;23.60;55.60;;;;;;5039592;28;20355;-64
2021/09/30 08:01:23;;;;;;;;;;;23.60;55.50;;;;;;5041431;28;19921;-65
2021/09/30 08:03:50;;;;;;;;;;;23.60;55.40;;;;;;5039684;28;19959;-64
2021/09/30 08:06:17;;;;;;;;;;;23.70;55.50;;;;;;5039533;28;19968;-65
2021/09/30 08:08:56;;;;;;;;;;;23.70;55.50;;;;;;5040215;28;19928;-65
2021/09/30 08:12:04;;;;;;;;;;;23.70;55.50;;;;;;5027786;28;19921;-74
2021/09/30 08:17:35;;;;;;;;;;;23.80;55.50;;;;;;5169913;22;20378;-71
2021/09/30 08:26:28;;;;;;;;;;;23.80;55.20;;;;;;5736732;22;19921;-72
2021/09/30 08:28:55;;;;;;;;;;;23.90;55.20;;;;;;5035937;28;19921;-70
2021/09/30 08:31:22;;;;;;;;;;;23.90;55.00;;;;;;5035827;28;19956;-75
2021/09/30 08:33:50;;;;;;;;;;;23.90;55.00;;;;;;5035836;28;19928;-74
2021/09/30 08:36:17;;;;;;;;;;;23.90;54.80;;;;;;5036356;28;19921;-70
2021/09/30 08:38:44;;;;;;;;;;;24.00;54.60;;;;;;5035843;28;19920;-71
2021/09/30 08:41:12;;;;;;;;;;;24.00;54.50;;;;;;5035247;28;19925;-71
2021/09/30 08:43:39;;;;;;;;;;;24.00;54.40;;;;;;5036450;28;20312;-71
2021/09/30 08:46:06;;;;;;;;;;;24.00;54.40;;;;;;5035704;28;20023;-70
2021/09/30 08:48:35;;;;;;;;;;;24.00;54.30;;;;;;5036179;28;19929;-71
2021/09/30 08:51:03;;;;;;;;;;;24.10;54.30;;;;;;5035086;28;19936;-72
2021/09/30 08:53:30;;;;;;;;;;;24.10;54.20;;;;;;5025707;28;20020;-70
2021/09/30 08:55:57;;;;;;;;;;;24.10;54.10;;;;;;5011407;28;19936;-73
2021/09/30 08:58:24;;;;;;;;;;;24.10;54.10;;;;;;5013881;28;19925;-72
2021/09/30 09:01:13;;;;;;;;;;;24.10;54.00;;;;;;5012406;28;19929;-71
2021/09/30 09:03:51;;;;;;;;;;;24.10;53.90;;;;;;5012277;28;19928;-71
2021/09/30 09:06:29;;;;;;;;;;;24.10;53.90;;;;;;5020749;28;19921;-70
2021/09/30 09:09:16;;;;;;;;;;;24.10;53.90;;;;;;5022239;28;19920;-72
2021/09/30 09:14:45;;;;;;;;;;;24.20;53.70;;;;;;5015896;28;19935;-69
2021/09/30 09:17:13;;;;;;;;;;;24.20;53.60;;;;;;5020744;28;19979;-71
2021/09/30 09:19:49;;;;;;;;;;;24.20;53.50;;;;;;5020849;28;19931;-71
2021/09/30 09:22:18;;;;;;;;;;;24.20;53.50;;;;;;5013737;28;19923;-71
2021/09/30 09:25:00;;;;;;;;;;;24.20;53.40;;;;;;5020922;28;19963;-72
2021/09/30 09:27:47;;;;;;;;;;;24.20;53.30;;;;;;5021616;28;20300;-70
2021/09/30 09:33:50;;;;;;;;;;;24.30;53.20;;;;;;5017418;28;19924;-69
2021/09/30 09:36:25;;;;;;;;;;;24.30;53.10;;;;;;5020999;28;20019;-68
2021/09/30 09:38:52;;;;;;;;;;;24.20;53.00;;;;;;5021569;28;20020;-70
2021/09/30 09:45:10;;;;;;;;;;;24.30;53.00;;;;;;5021644;28;20174;-68
2021/09/30 09:47:38;;;;;;;;;;;24.30;53.00;;;;;;5029544;28;20651;-70
2021/09/30 09:50:20;;;;;;;;;;;24.30;52.80;;;;;;4997167;28;20375;-72
2021/09/30 09:52:49;;;;;;;;;;;24.40;52.90;;;;;;5010717;28;19929;-72
2021/09/30 09:55:32;;;;;;;;;;;24.30;52.80;;;;;;5018148;28;20009;-72
2021/09/30 09:58:16;;;;;;;;;;;24.40;52.90;;;;;;5019734;28;20581;-72
2021/09/30 10:01:05;;;;;;;;;;;24.30;52.80;;;;;;5015188;28;19925;-72
2021/09/30 10:03:33;;;;;;;;;;;24.30;52.70;;;;;;5013871;28;19936;-74
2021/09/30 10:06:03;;;;;;;;;;;24.40;52.70;;;;;;5023905;28;20016;-71
2021/09/30 10:08:32;;;;;;;;;;;24.30;52.60;;;;;;5007026;28;20390;-70
2021/09/30 10:14:33;;;;;;;;;;;24.30;52.60;;;;;;5011261;28;20016;-69
2021/09/30 10:17:00;;;;;;;;;;;24.40;52.50;;;;;;5033284;28;20434;-74
2021/09/30 10:19:28;;;;;;;;;;;24.40;52.50;;;;;;5028282;28;20048;-71
2021/09/30 10:21:55;;;;;;;;;;;24.40;52.50;;;;;;5015284;28;19929;-72
2021/09/30 10:24:23;;;;;;;;;;;24.40;52.50;;;;;;5001233;28;20643;-71
2021/09/30 10:26:58;;;;;;;;;;;24.50;52.50;;;;;;5024162;28;20342;-73
2021/09/30 10:29:39;;;;;;;;;;;24.50;52.40;;;;;;5018453;28;20015;-70
2021/09/30 10:32:07;;;;;;;;;;;24.50;52.30;;;;;;5016515;28;19997;-69
2021/09/30 10:34:35;;;;;;;;;;;24.50;52.20;;;;;;5018921;28;20274;-69
2021/09/30 10:37:16;;;;;;;;;;;24.50;52.10;;;;;;5021439;28;19943;-71
2021/09/30 10:40:17;;;;;;;;;;;24.60;52.00;;;;;;5019032;28;19921;-69
2021/09/30 10:42:53;;;;;;;;;;;24.60;51.90;;;;;;5017743;28;19921;-71
2021/09/30 10:45:20;;;;;;;;;;;24.70;51.80;;;;;;5043728;28;19921;-74
2021/09/30 10:47:48;;;;;;;;;;;24.70;51.60;;;;;;5020023;28;20546;-71
2021/09/30 10:53:57;;;;;;;;;;;24.80;51.30;;;;;;5013075;28;19960;-72
2021/09/30 10:56:38;;;;;;;;;;;24.80;51.20;;;;;;5019039;28;19960;-71
2021/09/30 10:59:25;;;;;;;;;;;24.80;51.10;;;;;;5019334;28;20023;-70
2021/09/30 11:05:04;;;;;;;;;;;24.90;51.00;;;;;;5020173;28;20760;-73
2021/09/30 11:07:31;;;;;;;;;;;24.90;50.90;;;;;;5019765;28;19982;-69
2021/09/30 11:10:22;;;;;;;;;;;24.90;50.70;;;;;;5021588;28;19925;-70
2021/09/30 11:13:15;;;;;;;;;;;24.90;50.70;;;;;;5017095;28;19929;-73
2021/09/30 11:16:02;;;;;;;;;;;24.90;50.80;;;;;;5025454;28;19952;-75
2021/09/30 11:18:37;;;;;;;;;;;24.90;50.60;;;;;;5022513;28;19975;-74
2021/09/30 11:21:37;;;;;;;;;;;24.90;50.50;;;;;;5018633;28;20003;-70
2021/09/30 11:24:25;;;;;;;;;;;25.00;50.50;;;;;;5006923;28;19921;-71
2021/09/30 11:27:03;;;;;;;;;;;24.90;50.40;;;;;;5022801;28;20004;-70
2021/09/30 11:29:30;;;;;;;;;;;24.90;50.30;;;;;;5019636;28;20315;-71
2021/09/30 11:32:18;;;;;;;;;;;24.90;50.30;;;;;;5011673;28;20019;-69
2021/09/30 11:34:49;;;;;;;;;;;24.90;50.30;;;;;;5000452;28;20029;-73
2021/09/30 11:37:26;;;;;;;;;;;24.90;50.20;;;;;;5023671;28;19921;-70
2021/09/30 11:40:12;;;;;;;;;;;24.90;50.20;;;;;;5017214;28;19987;-69
2021/09/30 11:42:42;;;;;;;;;;;24.90;50.10;;;;;;5012179;28;20045;-66
2021/09/30 11:45:13;;;;;;;;;;;24.90;50.20;;;;;;5015874;28;19984;-65
2021/09/30 11:47:41;;;;;;;;;;;25.00;50.40;;;;;;5024990;28;19921;-69
2021/09/30 11:50:14;;;;;;;;;;;24.90;50.40;;;;;;5024716;28;20656;-69
2021/09/30 11:52:42;;;;;;;;;;;25.00;50.60;;;;;;5013841;28;19952;-67
2021/09/30 11:55:16;;;;;;;;;;;24.90;50.60;;;;;;5017238;28;20565;-69
2021/09/30 11:57:52;;;;;;;;;;;25.00;50.50;;;;;;5017794;28;19933;-71
2021/09/30 12:00:19;;;;;;;;;;;25.00;50.50;;;;;;5001980;28;20051;-66
2021/09/30 12:02:54;;;;;;;;;;;25.00;50.30;;;;;;4997557;28;20000;-67
2021/09/30 12:05:24;;;;;;;;;;;25.00;50.30;;;;;;5020296;28;19936;-69
2021/09/30 12:07:51;;;;;;;;;;;25.00;50.30;;;;;;5015938;28;20362;-69
2021/09/30 12:10:22;;;;;;;;;;;25.00;50.20;;;;;;5020582;28;20020;-68
2021/09/30 12:12:49;;;;;;;;;;;25.00;50.20;;;;;;5017739;28;20017;-70
2021/09/30 12:15:16;;;;;;;;;;;25.00;50.10;;;;;;5019168;28;20015;-66
2021/09/30 12:17:43;;;;;;;;;;;25.00;50.00;;;;;;5024387;28;20353;-64
2021/09/30 12:20:24;;;;;;;;;;;25.00;50.10;;;;;;5019992;28;19999;-63
2021/09/30 12:22:55;;;;;;;;;;;25.10;50.20;;;;;;5018369;28;20461;-65
2021/09/30 12:25:25;;;;;;;;;;;25.10;50.20;;;;;;5018368;28;20127;-66
2021/09/30 12:27:53;;;;;;;;;;;25.10;50.20;;;;;;5019947;28;20031;-70
2021/09/30 12:30:23;;;;;;;;;;;25.20;50.20;;;;;;5019036;28;19928;-69
2021/09/30 12:32:52;;;;;;;;;;;25.20;50.00;;;;;;5014155;28;19921;-68
2021/09/30 12:35:22;;;;;;;;;;;25.20;49.80;;;;;;5020860;28;19925;-67
2021/09/30 12:37:53;;;;;;;;;;;25.30;49.80;;;;;;5027726;28;19921;-70
2021/09/30 12:40:22;;;;;;;;;;;25.30;49.60;;;;;;5023635;28;20672;-63
2021/09/30 12:42:57;;;;;;;;;;;25.40;49.70;;;;;;5019742;28;20062;-63
2021/09/30 12:45:25;;;;;;;;;;;25.40;49.60;;;;;;5026032;28;20393;-64
2021/09/30 12:48:00;;;;;;;;;;;25.40;49.50;;;;;;5026016;28;20031;-65
2021/09/30 12:50:33;;;;;;;;;;;25.40;49.50;;;;;;5024167;28;19924;-68
2021/09/30 12:53:21;;;;;;;;;;;25.40;49.50;;;;;;5013331;28;19925;-67
2021/09/30 12:55:50;;;;;;;;;;;25.50;49.50;;;;;;5025786;28;20022;-64
2021/09/30 12:58:28;;;;;;;;;;;25.50;49.40;;;;;;5028450;28;19921;-72
2021/09/30 13:01:25;;;;;;;;;;;25.50;49.30;;;;;;5019674;28;20682;-69
2021/09/30 13:04:13;;;;;;;;;;;25.50;49.30;;;;;;5004755;28;19940;-67
2021/09/30 13:07:00;;;;;;;;;;;25.60;49.10;;;;;;5021527;28;19990;-67
2021/09/30 13:09:29;;;;;;;;;;;25.60;49.00;;;;;;5026312;28;19937;-71
2021/09/30 13:12:14;;;;;;;;;;;25.60;49.10;;;;;;5019340;28;19976;-67
2021/09/30 13:14:53;;;;;;;;;;;25.60;49.00;;;;;;5006257;28;19924;-67
2021/09/30 13:17:24;;;;;;;;;;;25.60;49.00;;;;;;5024485;28;20009;-68
2021/09/30 13:19:52;;;;;;;;;;;25.60;49.10;;;;;;5025232;28;20021;-70
2021/09/30 13:22:24;;;;;;;;;;;25.60;49.00;;;;;;5017492;28;19975;-67
2021/09/30 13:24:52;;;;;;;;;;;25.60;48.80;;;;;;5023346;28;19985;-71
2021/09/30 13:27:21;;;;;;;;;;;25.60;48.90;;;;;;5028743;28;20080;-68
2021/09/30 13:32:58;;;;;;;;;;;25.60;48.90;;;;;;5016429;28;19933;-66
2021/09/30 13:35:25;;;;;;;;;;;25.50;48.80;;;;;;5003484;28;20607;-66
2021/09/30 13:37:53;;;;;;;;;;;25.50;48.80;;;;;;5024096;28;19927;-66
2021/09/30 13:40:20;;;;;;;;;;;25.50;48.90;;;;;;5025765;28;19953;-71
2021/09/30 13:42:57;;;;;;;;;;;25.50;48.80;;;;;;5000224;28;19937;-69
2021/09/30 13:45:24;;;;;;;;;;;25.50;48.90;;;;;;5024675;28;19921;-71
2021/09/30 13:47:52;;;;;;;;;;;25.50;48.70;;;;;;5028479;28;19929;-71
2021/09/30 13:50:23;;;;;;;;;;;25.50;48.60;;;;;;5023883;28;20516;-70
2021/09/30 13:52:51;;;;;;;;;;;25.50;48.60;;;;;;5004451;28;19925;-70
2021/09/30 13:55:21;;;;;;;;;;;25.50;48.70;;;;;;5025448;28;19928;-69
2021/09/30 13:57:48;;;;;;;;;;;25.60;48.70;;;;;;5020705;28;19999;-66
2021/09/30 14:00:16;;;;;;;;;;;25.60;48.60;;;;;;5004670;28;19959;-72
2021/09/30 14:02:45;;;;;;;;;;;25.60;48.50;;;;;;5012270;28;20005;-66
2021/09/30 14:05:13;;;;;;;;;;;25.60;48.50;;;;;;5025110;28;19963;-72
2021/09/30 14:07:41;;;;;;;;;;;25.60;48.50;;;;;;5021991;28;19929;-70
2021/09/30 14:10:19;;;;;;;;;;;25.60;48.70;;;;;;5019381;28;20071;-70
2021/09/30 14:12:49;;;;;;;;;;;25.60;48.50;;;;;;5020261;28;19929;-67
2021/09/30 14:15:17;;;;;;;;;;;25.60;48.40;;;;;;5021940;28;19928;-62
2021/09/30 14:17:44;;;;;;;;;;;25.70;48.50;;;;;;5023663;28;20023;-64
2021/09/30 14:23:25;;;;;;;;;;;25.70;48.50;;;;;;5018163;28;19921;-66
2021/09/30 14:25:53;;;;;;;;;;;25.70;48.50;;;;;;5023780;28;19929;-65
2021/09/30 14:28:20;;;;;;;;;;;25.70;48.40;;;;;;5027128;28;19916;-70
2021/09/30 14:34:11;;;;;;;;;;;25.70;48.50;;;;;;5019503;28;20357;-66
2021/09/30 14:36:38;;;;;;;;;;;25.60;48.40;;;;;;5022772;28;19963;-70
2021/09/30 14:39:06;;;;;;;;;;;25.60;48.20;;;;;;5032766;28;20020;-69
2021/09/30 14:41:34;;;;;;;;;;;25.60;48.10;;;;;;5022694;28;19917;-66
2021/09/30 14:44:05;;;;;;;;;;;25.50;47.80;;;;;;5022348;28;19935;-65
2021/09/30 14:46:32;;;;;;;;;;;25.50;47.80;;;;;;5026603;28;20028;-66
2021/09/30 14:48:59;;;;;;;;;;;25.50;47.90;;;;;;5028745;28;20031;-66
2021/09/30 14:51:26;;;;;;;;;;;25.40;47.80;;;;;;5021731;28;19960;-68
2021/09/30 14:53:53;;;;;;;;;;;25.40;47.80;;;;;;5037363;28;20019;-66
2021/09/30 14:56:20;;;;;;;;;;;25.40;47.80;;;;;;5029795;28;19927;-66
2021/09/30 14:58:47;;;;;;;;;;;25.40;47.90;;;;;;5028073;28;20056;-66
2021/09/30 15:01:20;;;;;;;;;;;25.30;47.90;;;;;;5019650;28;19917;-65
2021/09/30 15:03:49;;;;;;;;;;;25.30;47.90;;;;;;5024089;28;20020;-69
2021/09/30 15:06:16;;;;;;;;;;;25.20;47.90;;;;;;5028034;28;19944;-67
2021/09/30 15:08:43;;;;;;;;;;;25.20;47.90;;;;;;5024741;28;19921;-68
2021/09/30 15:11:10;;;;;;;;;;;25.20;48.00;;;;;;5018024;28;19964;-69
2021/09/30 15:13:37;;;;;;;;;;;25.20;48.20;;;;;;5023537;28;20381;-68
2021/09/30 15:16:07;;;;;;;;;;;25.20;48.10;;;;;;5029501;28;20346;-69
2021/09/30 15:18:52;;;;;;;;;;;25.10;48.30;;;;;;5011269;28;20355;-69
2021/09/30 15:21:24;;;;;;;;;;;25.10;48.40;;;;;;5018002;28;19921;-68
2021/09/30 15:23:55;;;;;;;;;;;25.10;48.50;;;;;;5027030;28;19931;-68
2021/09/30 15:26:23;;;;;;;;;;;25.10;48.40;;;;;;5026998;28;19921;-68
2021/09/30 15:28:51;;;;;;;;;;;25.00;48.30;;;;;;5022421;28;19971;-69
2021/09/30 15:31:25;;;;;;;;;;;25.00;48.30;;;;;;5017561;28;19956;-65
2021/09/30 15:33:53;;;;;;;;;;;25.00;48.40;;;;;;5026042;28;20277;-67
2021/09/30 15:36:20;;;;;;;;;;;25.00;48.80;;;;;;5027131;28;20007;-70
2021/09/30 15:38:47;;;;;;;;;;;24.90;49.00;;;;;;5024967;28;20531;-69
2021/09/30 15:41:14;;;;;;;;;;;24.90;49.00;;;;;;5016092;28;19928;-69
2021/09/30 15:43:45;;;;;;;;;;;24.90;48.90;;;;;;5017383;28;19975;-70
2021/09/30 15:46:12;;;;;;;;;;;24.90;49.00;;;;;;5026862;28;20126;-67
2021/09/30 15:48:39;;;;;;;;;;;24.90;49.40;;;;;;5028642;28;19971;-69
2021/09/30 15:51:08;;;;;;;;;;;24.80;50.00;;;;;;5019598;28;20415;-68
2021/09/30 15:53:35;;;;;;;;;;;24.80;50.50;;;;;;5008243;28;20008;-69
2021/09/30 15:56:05;;;;;;;;;;;24.80;50.50;;;;;;5028315;28;19952;-69
2021/09/30 15:58:32;;;;;;;;;;;24.80;50.20;;;;;;5010985;28;19988;-70
2021/09/30 16:04:00;;;;;;;;;;;24.70;49.70;;;;;;5025813;28;19925;-69
2021/09/30 16:06:27;;;;;;;;;;;24.70;49.40;;;;;;5028797;28;19952;-70
2021/09/30 16:08:54;;;;;;;;;;;24.70;49.30;;;;;;5027872;28;19968;-69
2021/09/30 16:11:21;;;;;;;;;;;24.70;49.40;;;;;;5027090;28;19917;-69
2021/09/30 16:13:48;;;;;;;;;;;24.60;49.40;;;;;;5032872;28;20417;-70
2021/09/30 16:16:15;;;;;;;;;;;24.60;49.50;;;;;;5034544;28;19921;-66
2021/09/30 16:18:42;;;;;;;;;;;24.60;49.70;;;;;;5034503;28;20356;-69
2021/09/30 16:21:53;;;;;;;;;;;24.50;49.70;;;;;;5024543;28;19988;-66
2021/09/30 16:24:20;;;;;;;;;;;24.50;49.80;;;;;;5034649;28;20330;-69
2021/09/30 16:26:47;;;;;;;;;;;24.50;50.00;;;;;;5036036;28;20019;-66
2021/09/30 16:29:14;;;;;;;;;;;24.50;50.10;;;;;;5034641;28;20012;-70
2021/09/30 16:31:40;;;;;;;;;;;24.40;50.10;;;;;;5027284;28;19921;-69
2021/09/30 16:34:07;;;;;;;;;;;24.40;50.30;;;;;;5034898;28;19921;-70
2021/09/30 16:36:34;;;;;;;;;;;24.40;50.50;;;;;;5034672;28;19937;-70
2021/09/30 16:39:02;;;;;;;;;;;24.30;50.60;;;;;;5034831;28;19999;-69
2021/09/30 16:41:28;;;;;;;;;;;24.30;50.70;;;;;;5007431;28;20400;-67
2021/09/30 16:43:55;;;;;;;;;;;24.30;51.40;;;;;;5034348;28;19992;-69
2021/09/30 16:46:22;;;;;;;;;;;24.30;51.00;;;;;;5034821;28;19976;-67
2021/09/30 16:48:50;;;;;;;;;;;24.30;51.10;;;;;;5034729;28;19951;-70
2021/09/30 16:51:18;;;;;;;;;;;24.20;51.10;;;;;;5027167;28;19975;-69
2021/09/30 16:53:45;;;;;;;;;;;24.20;51.20;;;;;;5034634;28;20024;-70
2021/09/30 16:56:13;;;;;;;;;;;24.20;51.30;;;;;;5033548;28;20016;-70
2021/09/30 16:58:40;;;;;;;;;;;24.10;51.40;;;;;;5034549;28;20015;-70
2021/09/30 17:01:07;;;;;;;;;;;24.10;51.50;;;;;;5027760;28;19921;-67
2021/09/30 17:03:35;;;;;;;;;;;24.10;51.60;;;;;;5034767;28;20427;-70
2021/09/30 17:06:02;;;;;;;;;;;24.10;51.70;;;;;;5033534;28;19960;-69
2021/09/30 17:08:29;;;;;;;;;;;24.00;51.70;;;;;;5034593;28;20133;-70
2021/09/30 17:10:58;;;;;;;;;;;24.00;51.80;;;;;;5027199;28;19921;-67
2021/09/30 17:13:25;;;;;;;;;;;24.00;51.90;;;;;;5034503;28;20394;-69
2021/09/30 17:15:57;;;;;;;;;;;23.90;51.90;;;;;;5033892;28;19921;-70
2021/09/30 17:18:25;;;;;;;;;;;23.90;52.00;;;;;;5035575;28;19955;-70
2021/09/30 17:20:52;;;;;;;;;;;23.90;52.10;;;;;;5032645;28;20473;-69
2021/09/30 17:23:19;;;;;;;;;;;23.90;52.20;;;;;;5033816;28;20397;-69
2021/09/30 17:25:48;;;;;;;;;;;23.90;52.20;;;;;;5033198;28;20124;-70
2021/09/30 17:28:15;;;;;;;;;;;23.80;52.30;;;;;;5034872;28;20210;-70
2021/09/30 17:30:42;;;;;;;;;;;23.80;52.40;;;;;;5028889;28;19963;-66
2021/09/30 17:33:09;;;;;;;;;;;23.80;52.50;;;;;;5031975;28;20044;-70
2021/09/30 17:35:36;;;;;;;;;;;23.80;53.10;;;;;;5036893;28;19921;-70
2021/09/30 17:38:06;;;;;;;;;;;23.70;52.70;;;;;;5033455;28;19925;-69
2021/09/30 17:40:33;;;;;;;;;;;23.70;52.80;;;;;;5025668;28;19924;-71
2021/09/30 17:43:00;;;;;;;;;;;23.70;52.90;;;;;;5028880;28;19929;-70
2021/09/30 17:45:27;;;;;;;;;;;23.60;53.00;;;;;;5013004;28;20016;-67
2021/09/30 17:47:54;;;;;;;;;;;23.60;53.00;;;;;;5030873;28;20024;-69
2021/09/30 17:50:21;;;;;;;;;;;23.60;53.10;;;;;;5025088;28;19947;-67
2021/09/30 17:52:48;;;;;;;;;;;23.60;53.20;;;;;;5026247;28;19968;-69
2021/09/30 17:55:15;;;;;;;;;;;23.60;53.20;;;;;;5030896;28;19996;-70
2021/09/30 17:57:42;;;;;;;;;;;23.60;53.30;;;;;;5029773;28;19975;-70
2021/09/30 18:00:11;;;;;;;;;;;23.60;53.30;;;;;;5025434;28;20020;-67
2021/09/30 18:02:38;;;;;;;;;;;23.60;53.40;;;;;;5024933;28;19957;-69
2021/09/30 18:05:06;;;;;;;;;;;23.50;53.30;;;;;;5030952;28;20346;-69
2021/09/30 18:07:33;;;;;;;;;;;23.50;53.40;;;;;;5030768;28;19925;-70